Departure
RAF Cosford
Cosford, Shropshire, GB
cloud Weather
- Wind
- 220° / 9 kt
- Visibility
- -
- Ceiling
- CLR
- Temp / Dew
- -
- Altimeter
- -
Obs: 2026-09-01T15:20:00.000Z
Raw METAR
METAR EGWC 011520Z AUTO 22009KT //// ///////// ///// Q////
route Route
Departure
Cosford, Shropshire, GB
Obs: 2026-09-01T15:20:00.000Z
METAR EGWC 011520Z AUTO 22009KT //// ///////// ///// Q////
Arrival
Cosford, Shropshire, GB
Obs: 2026-09-01T15:20:00.000Z
METAR EGWC 011520Z AUTO 22009KT //// ///////// ///// Q////
| Date | Flight | Aircraft | Takeoff | Landing | Duration | Arr Δ |
|---|---|---|---|---|---|---|
| 2026-07-24 | UAY17 | 400ECC | Jul 24, 09:10 UTC | Jul 24, 10:45 UTC | 1h 35m | - |
| 2026-07-23 | UAY17 | 400ECC | Jul 23, 13:30 UTC | Jul 23, 14:20 UTC | 50m | - |
| 2026-07-23 | UAY17 | 400EA6 | Jul 23, 09:35 UTC | Jul 23, 10:50 UTC | 1h 15m | - |
| 2026-07-22 | UAY81 | 400EA6 | Jul 22, 13:05 UTC | Jul 22, 15:00 UTC | 1h 55m | - |
| 2026-07-22 | UAY88 | 400EB1 | Jul 22, 11:10 UTC | Jul 22, 11:50 UTC | 40m | - |
| 2026-07-21 | UAY83 | 400EA0 | Jul 21, 14:00 UTC | Jul 21, 14:45 UTC | 45m | - |
| 2026-07-21 | UAY84 | 400ED0 | Jul 21, 09:30 UTC | Jul 21, 10:25 UTC | 55m | - |
| 2026-07-20 | HLE09 | 40816F | Jul 20, 14:15 UTC | Jul 20, 14:45 UTC | 30m | - |
| 2026-07-20 | UAY83 | 400ECC | Jul 20, 09:45 UTC | Jul 20, 11:30 UTC | 1h 45m | - |
| 2026-07-20 | UAY10 | 400EA6 | Jul 20, 08:50 UTC | Jul 20, 09:50 UTC | 1h 0m | - |
| 2026-07-17 | UAY10 | 400ED0 | Jul 17, 12:15 UTC | Jul 17, 13:00 UTC | 45m | - |
| 2026-07-16 | UAY10 | 400EA6 | Jul 16, 09:45 UTC | Jul 16, 10:55 UTC | 1h 10m | - |
| 2026-07-15 | UAY10 | 400EA6 | Jul 15, 08:50 UTC | Jul 15, 09:35 UTC | 45m | - |
| 2026-07-15 | UAY15 | 400EA0 | Jul 15, 08:30 UTC | Jul 15, 09:15 UTC | 45m | - |
| 2026-07-13 | UAY14 | 400EA6 | Jul 13, 15:00 UTC | Jul 13, 16:00 UTC | 1h 0m | - |
| 2026-07-13 | UAY88 | 400EA0 | Jul 13, 14:20 UTC | Jul 13, 14:35 UTC | 15m | - |
| 2026-07-13 | UAY83 | 400EB1 | Jul 13, 12:50 UTC | Jul 13, 14:05 UTC | 1h 15m | - |
| 2026-07-13 | UAY72 | 400ED0 | Jul 13, 09:35 UTC | Jul 13, 11:25 UTC | 1h 50m | - |
| 2026-07-13 | UAY10 | 400EA0 | Jul 13, 09:05 UTC | Jul 13, 09:50 UTC | 45m | - |
| 2026-07-09 | UAY17 | 400EA0 | Jul 9, 11:50 UTC | Jul 9, 13:05 UTC | 1h 15m | - |
| 2026-07-08 | UAY17 | 400EA6 | Jul 8, 09:00 UTC | Jul 8, 10:15 UTC | 1h 15m | - |
| 2026-07-08 | UAY80 | 400ED0 | Jul 8, 08:55 UTC | Jul 8, 11:20 UTC | 2h 25m | - |
| 2026-07-06 | UAY10 | 400ECC | Jul 6, 12:00 UTC | Jul 6, 13:00 UTC | 1h 0m | - |
| 2026-07-06 | UAY14 | 400EA0 | Jul 6, 09:00 UTC | Jul 6, 10:00 UTC | 1h 0m | - |
| 2026-07-06 | UAY10 | 400EA6 | Jul 6, 08:55 UTC | Jul 6, 09:55 UTC | 1h 0m | - |
| 2026-07-05 | HLE03 | 407424 | Jul 5, 16:05 UTC | Jul 5, 16:20 UTC | 15m | - |
| 2026-06-30 | HLE03 | 407424 | Jun 30, 15:15 UTC | Jun 30, 15:30 UTC | 15m | - |
| 2026-06-30 | UAY14 | 400EA6 | Jun 30, 11:35 UTC | Jun 30, 12:45 UTC | 1h 10m | - |
| 2026-06-29 | UAY14 | 400EA6 | Jun 29, 14:14 UTC | Jun 29, 15:09 UTC | 55m | - |
| 2026-06-29 | UAY15 | 400EA6 | Jun 29, 10:40 UTC | Jun 29, 11:55 UTC | 1h 15m | - |
| 2026-06-25 | HLE03 | 407424 | Jun 25, 12:54 UTC | Jun 25, 13:05 UTC | 10m | - |
| 2026-06-23 | UAY10 | 400EA0 | Jun 23, 11:19 UTC | Jun 23, 12:15 UTC | 55m | - |
| 2026-06-23 | UAY14 | 400EA0 | Jun 23, 09:45 UTC | Jun 23, 10:35 UTC | 50m | - |
| 2026-06-22 | UAY85 | 400EB1 | Jun 22, 14:19 UTC | Jun 23, 09:40 UTC | 19h 20m | - |
| 2026-06-22 | UAY81 | 400EB1 | Jun 22, 13:59 UTC | Jun 23, 09:40 UTC | 19h 40m | - |
| 2026-06-22 | UAY81 | 400EB1 | Jun 22, 11:00 UTC | Jun 22, 12:40 UTC | 1h 40m | - |
| 2026-06-14 | GBEDF | 401C54 | Jun 14, 13:00 UTC | Jun 14, 13:10 UTC | 10m | - |
| 2026-06-14 | BLGL02 | 43C955 | Jun 14, 11:25 UTC | Jun 14, 11:50 UTC | 25m | - |
| 2026-06-13 | R22 | 405C6C | Jun 13, 10:10 UTC | Jun 13, 10:30 UTC | 20m | - |
| 2026-06-12 | CWL26 | 400ED8 | Jun 12, 15:40 UTC | Jun 12, 15:50 UTC | 10m | - |
| 2026-06-06 | UAY10 | 400EA0 | Jun 6, 13:00 UTC | Jun 6, 14:45 UTC | 1h 45m | - |
| 2026-06-06 | UAY88 | 400ECC | Jun 6, 11:14 UTC | Jun 6, 12:54 UTC | 1h 40m | - |
| 2026-06-06 | UAY74 | 400EA6 | Jun 6, 11:00 UTC | Jun 6, 12:45 UTC | 1h 45m | - |
| 2026-06-02 | UAY81 | 400ECC | Jun 2, 09:45 UTC | Jun 2, 11:30 UTC | 1h 45m | - |
| 2026-06-01 | UAY17 | 400EA0 | Jun 1, 10:25 UTC | Jun 1, 11:20 UTC | 55m | - |
| 2026-05-30 | UAY17 | 400EA6 | May 30, 15:55 UTC | May 30, 16:15 UTC | 20m | - |
| 2026-05-30 | UAY17 | 400ECC | May 30, 09:15 UTC | May 30, 10:40 UTC | 1h 25m | - |
| 2026-05-27 | UAY10 | 400EB1 | May 27, 13:45 UTC | May 27, 14:50 UTC | 1h 5m | - |
| 2026-05-27 | UAY93 | 400EA0 | May 27, 12:55 UTC | May 27, 13:40 UTC | 45m | - |
| 2026-05-27 | UAY93 | 400EB1 | May 27, 09:30 UTC | May 27, 11:05 UTC | 1h 35m | - |